Ceylon, Ohio
Current Conditions -  °F | °C
As of 5:13 AM on Thursday 29 Jan 2015 (Local Time) from KPCW Reporting Station
Overcast Overcast  
Wind Chill: 21°   Ceiling: 6500
Heat Index: 30°   Visibility: 10mi
Dew Point: 18°   Wind: 12mph
Humidity: 60%   Direction: 150°SSE
Pressure: 29.91"   Gusts: NA
Location:  41.3748°N, 82.5554°W
Report Text: KPCW 291013Z AUTO 15010KT 10SM OVC065 M01/M08 A2991 RMK AO2 $
Loading
Personal Weather Stations






























Interactive Weather Map New forecast layout! Learn more

10-Day Weather Forecast

Advertisements
Track Severe Weather on mobile